Buoy 13526

sailwx.info

Track history (hours):
 
Tides and Currents Weather Stations Pressure Air Temp Water Temp Dewpoint Dewpoint Depression Visibility Wind Speed Wind Dir Waves Ship Positions

Drifting buoy 13526

Last reported at 2016-Dec-08 06:46 UTC. Time now 2016-Dec-08 08:00 UTC.
Position N 28°27' W 064°06'.

Water temperature 23.8 ° C

Date/timePositionNaut miles runAvg speedWind from/ knotsBaromVisibWave heightAir tempDewpointWater temp
2016-Dec-08 06:46N 28°27' W 064°06'1 9.0 23.8
2016-Dec-08 06:42N 28°28' W 064°06'1 0.2 23.8
2016-Dec-08 01:59N 28°28' W 064°07'0 0.0 23.7
2016-Dec-08 01:53N 28°28' W 064°07'0 0.0 23.7
2016-Dec-08 01:07N 28°28' W 064°07'0 0.0 23.7
2016-Dec-08 01:01N 28°28' W 064°07'0 0.0 23.7
2016-Dec-08 00:41N 28°28' W 064°07'0 0.0 23.7
2016-Dec-08 00:21N 28°28' W 064°07'1 6.0 23.8
2016-Dec-08 00:13N 28°27' W 064°08'0 0.0 23.8
2016-Dec-07 23:53N 28°27' W 064°08'0 0.0 23.8
2016-Dec-07 23:22N 28°27' W 064°08'0 0.0 23.9
2016-Dec-07 23:07N 28°27' W 064°08'1 9.6 23.9
2016-Dec-07 23:02N 28°28' W 064°08'1 1.0 23.9
2016-Dec-07 22:16N 28°27' W 064°09'0 0.0 23.9
2016-Dec-07 22:12N 28°27' W 064°09'1 4.0 23.9
2016-Dec-07 22:04N 28°27' W 064°08'0 0.0 23.9
2016-Dec-07 21:27N 28°27' W 064°08'1 0.6 23.9
2016-Dec-07 20:02N 28°26' W 064°09'0 0.0 23.9
2016-Dec-07 19:58N 28°26' W 064°09'2 1.1 23.9
2016-Dec-07 18:22N 28°27' W 064°11'0 0.0 24.0
2016-Dec-07 18:17N 28°27' W 064°11'110.6 24.0
2016-Dec-07 18:14N 28°27' W 064°10'2 0.6 24.0
2016-Dec-07 15:29N 28°26' W 064°12'1 1.1 24.1
2016-Dec-07 14:46N 28°27' W 064°13'0 0.0 24.0
2016-Dec-07 14:41N 28°27' W 064°13'1 1.5 24.0
2016-Dec-07 13:50N 28°26' W 064°13'0 0.0 24.0
2016-Dec-07 13:04N 28°26' W 064°13'1 9.0 24.0
2016-Dec-07 12:57N 28°26' W 064°14'0 0.0 24.0
2016-Dec-07 12:35N 28°26' W 064°14'112.0 24.0
2016-Dec-07 12:29N 28°25' W 064°14'1 0.3 24.0
2016-Dec-07 10:53N 28°25' W 064°14'110.6 24.0
2016-Dec-07 10:50N 28°25' W 064°14'1 7.2 24.0
2016-Dec-07 10:45N 28°24' W 064°14'0 0.0 24.0
2016-Dec-07 09:07N 28°24' W 064°14'0 0.0 24.0
2016-Dec-07 09:01N 28°24' W 064°14'0 0.0 24.0
2016-Dec-07 08:41N 28°24' W 064°14'0 0.0 24.0
2016-Dec-07 08:38N 28°24' W 064°14'1 0.5 24.0
2016-Dec-07 07:01N 28°23' W 064°15'4 0.6 24.0
2016-Dec-07 00:42N 28°21' W 064°19'0 0.0 24.1
2016-Dec-07 00:33N 28°21' W 064°19'0 0.0 24.1
2016-Dec-07 00:04N 28°21' W 064°19'1 1.8 24.1
2016-Dec-06 23:46N 28°21' W 064°19'0 0.0 24.1
2016-Dec-06 23:39N 28°21' W 064°19'1 9.0 24.1
2016-Dec-06 23:35N 28°22' W 064°19'1 0.7 24.1
2016-Dec-06 22:30N 28°21' W 064°20'0 0.0 24.1
2016-Dec-06 22:24N 28°21' W 064°20'0 0.0 24.1
2016-Dec-06 22:18N 28°21' W 064°20'0 0.0 24.1
2016-Dec-06 22:00N 28°21' W 064°20'1 0.7 24.1
2016-Dec-06 20:52N 28°20' W 064°20'1 6.9 24.1
2016-Dec-06 20:45N 28°21' W 064°21'0 0.0 24.1
2016-Dec-06 20:42N 28°21' W 064°21'1 2.0 24.1
2016-Dec-06 20:05N 28°20' W 064°22'0 0.0 24.2
2016-Dec-06 18:33N 28°20' W 064°22'0 0.0 24.2
2016-Dec-06 18:30N 28°20' W 064°22'0 0.0 24.2
2016-Dec-06 18:25N 28°20' W 064°22'1 0.3 24.2
2016-Dec-06 16:49N 28°20' W 064°23'0 0.0 24.2
2016-Dec-06 15:49N 28°20' W 064°23'0 0.0 24.2
2016-Dec-06 15:03N 28°20' W 064°23'1 0.8 24.1
2016-Dec-06 14:06N 28°20' W 064°22'115.8 24.1
2016-Dec-06 14:04N 28°20' W 064°23'0 0.0 24.1
2016-Dec-06 13:23N 28°20' W 064°23'0 0.0 24.1
2016-Dec-06 13:22N 28°20' W 064°23'0 0.0 24.1
2016-Dec-06 12:45N 28°20' W 064°23'110.6 24.1
2016-Dec-06 12:42N 28°20' W 064°22'1 7.2 24.1
2016-Dec-06 12:37N 28°19' W 064°22'0 0.0 24.1
2016-Dec-06 12:28N 28°19' W 064°22'116.0 24.1
2016-Dec-06 12:25N 28°19' W 064°23'1 0.6 24.1
2016-Dec-06 11:22N 28°19' W 064°23'0 0.0 24.1
2016-Dec-06 11:19N 28°19' W 064°23'0 0.0 24.1
2016-Dec-06 11:16N 28°19' W 064°23'1 3.5 24.1
2016-Dec-06 11:07N 28°19' W 064°23'1 6.0 24.1
2016-Dec-06 10:59N 28°19' W 064°23'1 0.5 24.1
2016-Dec-06 09:42N 28°18' W 064°23'0 0.0 24.1
2016-Dec-06 09:38N 28°18' W 064°23'1 7.2 24.1
2016-Dec-06 09:33N 28°19' W 064°23'0 0.0 24.1
2016-Dec-06 08:52N 28°19' W 064°23'1 8.0 24.1
2016-Dec-06 08:46N 28°18' W 064°23'0 0.0 24.1
2016-Dec-06 08:42N 28°18' W 064°23'0 0.0 24.1
2016-Dec-06 07:58N 28°18' W 064°23'0 0.0 24.1
2016-Dec-06 07:06N 28°18' W 064°23'254.0 24.1
2016-Dec-06 07:04N 28°16' W 064°23'0 0.0 24.1
2016-Dec-06 02:39N 28°16' W 064°23'0 0.0 24.1
2016-Dec-06 02:34N 28°16' W 064°23'0 0.0 24.1
2016-Dec-06 01:48N 28°16' W 064°23'1 5.1 24.1
2016-Dec-06 01:41N 28°16' W 064°23'0 0.0 24.1
2016-Dec-06 01:02N 28°16' W 064°23'0 0.0 24.1
2016-Dec-06 00:59N 28°16' W 064°23'0 0.0 24.1
2016-Dec-06 00:52N 28°16' W 064°23'0 0.0 24.1
2016-Dec-06 00:16N 28°16' W 064°23'110.6 24.1
2016-Dec-06 00:13N 28°16' W 064°24'1 6.9 24.1
2016-Dec-06 00:06N 28°15' W 064°23'124.0 24.1
2016-Dec-06 00:04N 28°16' W 064°24'1 0.7 24.1
2016-Dec-05 22:52N 28°15' W 064°23'0 0.0 24.1
2016-Dec-05 22:35N 28°15' W 064°23'0 0.0 24.1
2016-Dec-05 22:34N 28°15' W 064°23'0 0.0 24.1
2016-Dec-05 22:21N 28°15' W 064°23'1 0.8 24.1
2016-Dec-05 21:20N 28°14' W 064°24'1 2.9 24.1
2016-Dec-05 21:09N 28°14' W 064°23'0 0.0 24.1
2016-Dec-05 20:51N 28°14' W 064°23'0 0.0 24.1
2016-Dec-05 20:45N 28°14' W 064°23'1 1.2 24.1
2016-Dec-05 20:19N 28°14' W 064°24'0 0.0 24.1
2016-Dec-05 18:45N 28°14' W 064°24'0 0.0 24.1
2016-Dec-05 18:42N 28°14' W 064°24'0 0.0 24.1
2016-Dec-05 18:36N 28°14' W 064°24'1 0.8 24.1
2016-Dec-05 17:01N 28°13' W 064°24'0 0.0 24.1
2016-Dec-05 16:07N 28°13' W 064°24'0 0.0 24.1
2016-Dec-05 15:24N 28°13' W 064°24'0 0.0 24.1
2016-Dec-05 14:34N 28°13' W 064°24'1 8.0 24.1
2016-Dec-05 14:28N 28°13' W 064°25'0 0.0 24.1
2016-Dec-05 13:43N 28°13' W 064°25'1 1.6 24.1
2016-Dec-05 12:53N 28°14' W 064°24'116.0 24.1
2016-Dec-05 12:50N 28°13' W 064°23'110.4 24.1
2016-Dec-05 12:43N 28°13' W 064°25'1 0.6 24.1
2016-Dec-05 11:45N 28°13' W 064°25'1 2.3 24.0
2016-Dec-05 11:18N 28°13' W 064°23'1 9.1 24.0
2016-Dec-05 11:11N 28°13' W 064°25'0 0.0 24.0
2016-Dec-05 11:07N 28°13' W 064°25'0 0.0 24.0
2016-Dec-05 10:07N 28°13' W 064°25'0 0.0 24.0
2016-Dec-05 10:02N 28°13' W 064°25'1 1.2 24.0
2016-Dec-05 09:36N 28°13' W 064°25'110.6 24.0
2016-Dec-05 09:33N 28°13' W 064°25'1 1.7 24.0
2016-Dec-05 09:04N 28°14' W 064°25'0 0.0 24.0
2016-Dec-05 08:58N 28°14' W 064°25'1 2.8 24.0
2016-Dec-05 08:32N 28°14' W 064°24'1 0.7 24.0
2016-Dec-05 07:21N 28°15' W 064°25'1 0.3 24.0
2016-Dec-05 05:39N 28°15' W 064°24'2 0.6 24.0
2016-Dec-05 02:07N 28°17' W 064°23'1 5.3 24.1
2016-Dec-05 02:01N 28°17' W 064°23'0 0.0 24.1
2016-Dec-05 01:24N 28°17' W 064°23'0 0.0 24.1
2016-Dec-05 01:21N 28°17' W 064°23'1 8.0 24.1
2016-Dec-05 01:15N 28°17' W 064°23'1 0.9 24.1
2016-Dec-05 00:37N 28°18' W 064°23'0 0.0 24.2
2016-Dec-05 00:27N 28°18' W 064°23'136.0 24.2
2016-Dec-05 00:26N 28°17' W 064°23'1 7.2 24.2
2016-Dec-05 00:21N 28°18' W 064°23'1 0.8 24.2
2016-Dec-04 23:21N 28°17' W 064°22'0 0.0 24.2
2016-Dec-04 23:02N 28°17' W 064°22'1 6.9 24.2
2016-Dec-04 22:55N 28°18' W 064°23'1 4.0 24.2
2016-Dec-04 22:46N 28°17' W 064°23'112.0 24.2
2016-Dec-04 22:42N 28°18' W 064°22'0 0.0 24.2
2016-Dec-04 21:45N 28°18' W 064°22'1 4.0 24.2
2016-Dec-04 21:37N 28°18' W 064°23'0 0.0 24.2
2016-Dec-04 21:20N 28°18' W 064°23'1 2.4 24.2
2016-Dec-04 21:07N 28°18' W 064°22'0 0.0 24.2
2016-Dec-04 21:00N 28°18' W 064°22'0 0.0 24.2
2016-Dec-04 20:31N 28°18' W 064°22'1 1.2 24.2
2016-Dec-04 20:01N 28°19' W 064°22'0 0.0 24.2
2016-Dec-04 18:52N 28°19' W 064°22'110.6 24.2
2016-Dec-04 18:49N 28°19' W 064°22'0 0.0 24.2
2016-Dec-04 17:13N 28°19' W 064°22'2 1.3 24.2
2016-Dec-04 15:43N 28°20' W 064°21'1 0.7 24.2
2016-Dec-04 14:52N 28°20' W 064°21'0 0.0 24.2
2016-Dec-04 14:49N 28°20' W 064°21'0 0.0 24.2
2016-Dec-04 14:06N 28°20' W 064°21'1 5.1 24.2
2016-Dec-04 13:59N 28°20' W 064°21'0 0.0 24.2
2016-Dec-04 13:11N 28°20' W 064°21'1 6.0 24.2
2016-Dec-04 13:05N 28°21' W 064°21'0 0.0 24.2
2016-Dec-04 12:07N 28°21' W 064°21'0 0.0 24.2
2016-Dec-04 11:32N 28°21' W 064°21'0 0.0 24.2
2016-Dec-04 11:22N 28°21' W 064°21'1 0.7 24.2
2016-Dec-04 10:35N 28°21' W 064°22'0 0.0 24.2
2016-Dec-04 10:29N 28°21' W 064°22'1 4.8 24.2
2016-Dec-04 10:19N 28°22' W 064°21'1 1.2 24.2
2016-Dec-04 09:49N 28°21' W 064°21'1 1.0 24.2
2016-Dec-04 09:12N 28°22' W 064°21'0 0.0 24.2
2016-Dec-04 09:09N 28°22' W 064°21'0 0.0 24.2
2016-Dec-04 09:06N 28°22' W 064°21'0 0.0 24.2
2016-Dec-04 09:04N 28°22' W 064°21'0 0.0 24.2
2016-Dec-04 09:00N 28°22' W 064°21'1 9.6 24.2
2016-Dec-04 08:55N 28°22' W 064°22'0 0.0 24.2
2016-Dec-04 07:34N 28°22' W 064°22'1 4.0 24.2
2016-Dec-04 07:26N 28°22' W 064°21'1 0.4 24.2
2016-Dec-04 05:48N 28°22' W 064°21'1 0.1 24.2
2016-Dec-04 01:43N 28°22' W 064°20'0 0.0 24.2
2016-Dec-04 01:37N 28°22' W 064°20'1 0.6 24.2
2016-Dec-04 00:41N 28°22' W 064°21'0 0.0 24.2
2016-Dec-04 00:02N 28°22' W 064°21'0 0.0 24.2
2016-Dec-03 23:48N 28°22' W 064°21'0 0.0 24.2
2016-Dec-03 23:45N 28°22' W 064°21'1 2.4 24.2
2016-Dec-03 23:32N 28°22' W 064°20'0 0.0 24.2
2016-Dec-03 23:28N 28°22' W 064°20'1 0.9 24.2
2016-Dec-03 22:53N 28°22' W 064°20'0 0.0 24.2
2016-Dec-03 22:07N 28°22' W 064°20'1 2.3 24.2
2016-Dec-03 21:53N 28°22' W 064°20'0 0.0 24.2
2016-Dec-03 21:21N 28°22' W 064°20'0 0.0 24.2
2016-Dec-03 21:16N 28°22' W 064°20'1 0.9 24.2
2016-Dec-03 20:42N 28°22' W 064°20'0 0.0 24.2
2016-Dec-03 20:28N 28°22' W 064°20'1 0.4 24.2
2016-Dec-03 19:06N 28°22' W 064°20'112.0 24.2
2016-Dec-03 19:03N 28°23' W 064°20'0 0.0 24.2
2016-Dec-03 18:58N 28°23' W 064°20'1 0.9 24.2
2016-Dec-03 17:26N 28°22' W 064°20'0 0.0 24.2
2016-Dec-03 17:21N 28°22' W 064°20'1 0.4 24.2
2016-Dec-03 15:14N 28°21' W 064°21'0 0.0 24.2
2016-Dec-03 15:11N 28°21' W 064°21'0 0.0 24.2
2016-Dec-03 14:28N 28°21' W 064°21'1 6.0 24.2
2016-Dec-03 14:22N 28°20' W 064°21'2 1.9 24.2
2016-Dec-03 13:31N 28°20' W 064°23'0 0.0 24.1
2016-Dec-03 13:16N 28°20' W 064°23'0 0.0 24.1
2016-Dec-03 12:32N 28°20' W 064°23'1 1.3 24.1
2016-Dec-03 11:42N 28°20' W 064°22'0 0.0 24.1
2016-Dec-03 11:35N 28°20' W 064°22'1 0.7 24.1
2016-Dec-03 10:52N 28°20' W 064°21'116.0 24.1
2016-Dec-03 10:49N 28°21' W 064°22'0 0.0 24.1
2016-Dec-03 10:00N 28°21' W 064°22'0 0.0 24.2
2016-Dec-03 09:35N 28°21' W 064°22'0 0.0 24.2
2016-Dec-03 09:32N 28°21' W 064°22'1 9.0 24.2
2016-Dec-03 09:28N 28°22' W 064°22'0 0.0 24.2
2016-Dec-03 09:24N 28°22' W 064°22'1 8.0 24.2
2016-Dec-03 09:18N 28°21' W 064°21'0 0.0 24.2
2016-Dec-03 09:11N 28°21' W 064°21'0 0.0 24.2
2016-Dec-03 07:40N 28°21' W 064°21'1 0.4 24.2
2016-Dec-03 06:05N 28°22' W 064°21'116.0 24.2
2016-Dec-03 06:02N 28°22' W 064°22'1 0.2 24.2
2016-Dec-03 02:50N 28°22' W 064°21'0 0.0 24.2
2016-Dec-03 02:44N 28°22' W 064°21'0 0.0 24.2
2016-Dec-03 02:04N 28°22' W 064°21'1 0.5 24.2
2016-Dec-03 01:06N 28°22' W 064°22'110.6 24.2
2016-Dec-03 01:03N 28°22' W 064°21'0 0.0 24.2
2016-Dec-03 00:23N 28°22' W 064°21'0 0.0 24.2
2016-Dec-03 00:19N 28°22' W 064°21'0 0.0 24.2
2016-Dec-03 00:00N 28°22' W 064°21'1 0.6 24.2
2016-Dec-02 23:07N 28°22' W 064°22'115.8 24.2
2016-Dec-02 23:05N 28°22' W 064°21'1 1.4 24.2
2016-Dec-02 22:31N 28°22' W 064°22'1 5.1 24.2
2016-Dec-02 22:24N 28°22' W 064°22'1 0.7 24.2
2016-Dec-02 21:33N 28°22' W 064°22'0 0.0 24.2
2016-Dec-02 21:28N 28°22' W 064°22'0 0.0 24.2
2016-Dec-02 21:25N 28°22' W 064°22'1 1.1 24.2
2016-Dec-02 20:52N 28°21' W 064°22'0 0.0 24.2
2016-Dec-02 20:50N 28°21' W 064°22'0 0.0 24.2
2016-Dec-02 20:39N 28°21' W 064°22'0 0.0 24.2
2016-Dec-02 19:15N 28°21' W 064°22'0 0.0 24.3
2016-Dec-02 19:10N 28°21' W 064°22'1 0.5 24.3
2016-Dec-02 17:37N 28°20' W 064°22'1 4.5 24.3
2016-Dec-02 17:29N 28°20' W 064°22'0 0.0 24.3
2016-Dec-02 15:34N 28°20' W 064°22'110.6 24.2
2016-Dec-02 15:31N 28°20' W 064°22'0 0.0 24.2
2016-Dec-02 14:50N 28°20' W 064°22'1 4.0 24.2
2016-Dec-02 14:41N 28°19' W 064°22'0 0.0
2016-Dec-02 13:53N 28°19' W 064°22'0 0.0 24.1
2016-Dec-02 13:07N 28°19' W 064°22'0 0.0 24.1
2016-Dec-02 13:02N 28°19' W 064°22'1 0.7 24.1
2016-Dec-02 12:09N 28°19' W 064°22'0 0.0 24.1
2016-Dec-02 11:52N 28°19' W 064°22'0 0.0 24.1
2016-Dec-02 11:49N 28°19' W 064°22'1 4.5 24.1
2016-Dec-02 11:41N 28°18' W 064°22'1 1.8 24.1
2016-Dec-02 11:21N 28°19' W 064°22'0 0.0 24.1
2016-Dec-02 11:18N 28°19' W 064°22'1 0.7 24.1
2016-Dec-02 10:06N 28°18' W 064°21'110.6 24.1
2016-Dec-02 10:03N 28°18' W 064°22'1 7.2 24.1
2016-Dec-02 09:58N 28°17' W 064°22'0 0.0 24.1
2016-Dec-02 09:40N 28°17' W 064°22'0 0.0 24.1
2016-Dec-02 09:34N 28°17' W 064°22'1 0.5 24.1
2016-Dec-02 08:25N 28°17' W 064°21'0 0.0 24.1
2016-Dec-02 07:51N 28°17' W 064°21'116.0 24.1
2016-Dec-02 07:48N 28°17' W 064°20'0 0.0 24.1
2016-Dec-02 06:18N 28°17' W 064°20'0 0.0 24.1
2016-Dec-02 06:13N 28°17' W 064°20'2 0.4 24.1
2016-Dec-02 01:32N 28°16' W 064°19'0 0.0 24.1
2016-Dec-02 01:22N 28°16' W 064°19'0 0.0 24.2
2016-Dec-02 00:45N 28°16' W 064°19'0 0.0 24.2
2016-Dec-02 00:40N 28°16' W 064°19'0 0.0 24.2
2016-Dec-02 00:36N 28°16' W 064°19'0 0.0 24.2
2016-Dec-02 00:31N 28°16' W 064°19'1 0.8 24.2
2016-Dec-01 23:50N 28°16' W 064°18'0 0.0 24.2
2016-Dec-01 23:25N 28°16' W 064°18'0 0.0 24.2
2016-Dec-01 23:22N 28°16' W 064°18'0 0.0 24.2
2016-Dec-01 23:19N 28°16' W 064°18'0 0.0 24.2
2016-Dec-01 22:53N 28°16' W 064°18'1 7.2 24.2
2016-Dec-01 22:48N 28°16' W 064°18'1 0.6 24.2
2016-Dec-01 21:45N 28°16' W 064°18'0 0.0 24.2
2016-Dec-01 21:41N 28°16' W 064°18'1 9.6 24.2
2016-Dec-01 21:36N 28°16' W 064°19'0 0.0 24.2
2016-Dec-01 21:15N 28°16' W 064°19'1 8.0 24.2
2016-Dec-01 21:09N 28°15' W 064°18'0 0.0 24.2
2016-Dec-01 19:29N 28°15' W 064°18'0 0.0 24.3
2016-Dec-01 19:24N 28°15' W 064°18'112.0 24.3
2016-Dec-01 19:21N 28°14' W 064°18'0 0.0 24.3
2016-Dec-01 17:49N 28°14' W 064°18'1 8.7 24.3
2016-Dec-01 17:40N 28°13' W 064°17'1 0.3 24.3
2016-Dec-01 15:53N 28°13' W 064°17'1 0.7 24.3
2016-Dec-01 15:07N 28°13' W 064°17'0 0.0 24.3
2016-Dec-01 15:05N 28°13' W 064°17'1 1.5 24.3
2016-Dec-01 14:16N 28°12' W 064°16'0 0.0 24.2
2016-Dec-01 14:07N 28°12' W 064°16'1 0.7 24.2
2016-Dec-01 13:23N 28°12' W 064°16'131.7 24.2
2016-Dec-01 13:21N 28°12' W 064°15'0 0.0
2016-Dec-01 12:32N 28°12' W 064°15'1 6.3 24.2
2016-Dec-01 12:27N 28°12' W 064°16'0 0.0 24.2
2016-Dec-01 12:01N 28°12' W 064°16'1 4.0 24.2
2016-Dec-01 11:52N 28°11' W 064°16'0 0.0 24.2
2016-Dec-01 11:44N 28°11' W 064°16'1 1.0 24.2
2016-Dec-01 10:34N 28°11' W 064°14'0 0.0 24.2
2016-Dec-01 10:29N 28°11' W 064°14'1 6.0 24.2
2016-Dec-01 10:23N 28°10' W 064°14'112.0 24.2
2016-Dec-01 10:20N 28°11' W 064°14'1 6.0 24.2
2016-Dec-01 10:14N 28°10' W 064°14'0 0.0 24.2
2016-Dec-01 10:06N 28°10' W 064°14'1 5.1 24.2
2016-Dec-01 09:59N 28°11' W 064°14'139.3 24.2
2016-Dec-01 09:57N 28°10' W 064°14'0 0.0 24.2
2016-Dec-01 08:53N 28°10' W 064°14'116.0 24.2
2016-Dec-01 08:50N 28°10' W 064°13'0 0.0 24.2
2016-Dec-01 08:07N 28°10' W 064°13'0 0.0 24.2
2016-Dec-01 08:05N 28°10' W 064°13'1 0.8 24.2
2016-Dec-01 06:29N 28°10' W 064°12'0 0.0 24.3
2016-Dec-01 06:24N 28°10' W 064°12'3 0.6 24.3
2016-Dec-01 01:53N 28°09' W 064°09'1 4.8 24.3
2016-Dec-01 01:43N 28°08' W 064°08'0 0.0 24.3
2016-Dec-01 01:05N 28°08' W 064°08'0 0.0 24.3
2016-Dec-01 01:02N 28°08' W 064°08'0 0.0 24.3
2016-Dec-01 00:59N 28°08' W 064°08'1 0.6 24.3
2016-Dec-01 00:07N 28°08' W 064°08'1 5.3 24.3
2016-Dec-01 00:01N 28°08' W 064°07'0 0.0
2016-Nov-30 23:36N 28°08' W 064°07'0 0.0 24.3
2016-Nov-30 23:31N 28°08' W 064°07'0 0.0 24.3
2016-Nov-30 23:21N 28°08' W 064°07'118.0
2016-Nov-30 23:19N 28°08' W 064°07'1 0.8 24.4
2016-Nov-30 21:52N 28°08' W 064°06'1 4.0 24.4
2016-Nov-30 21:44N 28°08' W 064°07'239.8 24.4
2016-Nov-30 21:41N 28°07' W 064°05'0 0.0 24.4
2016-Nov-30 21:36N 28°07' W 064°05'0 0.0 24.4
2016-Nov-30 20:00N 28°07' W 064°05'0 0.0 24.4
2016-Nov-30 19:37N 28°07' W 064°05'1 5.3 24.4
2016-Nov-30 19:31N 28°07' W 064°04'0 0.0 24.4
2016-Nov-30 18:00N 28°07' W 064°04'214.5 24.4
2016-Nov-30 17:53N 28°07' W 064°02'0 0.0 24.4
2016-Nov-30 16:11N 28°07' W 064°02'0 0.0 24.4
2016-Nov-30 15:29N 28°07' W 064°02'115.9 24.4
2016-Nov-30 15:27N 28°07' W 064°02'1 0.7 24.4
2016-Nov-30 14:36N 28°06' W 064°02'1 5.3 24.4
2016-Nov-30 14:30N 28°06' W 064°01'0 0.0 24.4
2016-Nov-30 13:49N 28°06' W 064°01'112.7 24.4
2016-Nov-30 13:44N 28°06' W 064°02'1 1.4 24.4
2016-Nov-30 12:52N 28°05' W 064°01'1 0.9 24.4
2016-Nov-30 12:15N 28°05' W 064°01'0 0.0 24.4
2016-Nov-30 12:12N 28°05' W 064°01'1 0.5 24.4
2016-Nov-30 11:06N 28°05' W 064°00'112.0 24.4
2016-Nov-30 11:03N 28°05' W 064°00'1 1.6 24.4
2016-Nov-30 10:33N 28°05' W 063°59'0 0.0 24.4
2016-Nov-30 10:28N 28°05' W 063°59'1 0.8 24.4
2016-Nov-30 09:28N 28°05' W 063°59'0 0.0 24.4
2016-Nov-30 09:25N 28°05' W 063°59'0 0.0 24.4
2016-Nov-30 09:22N 28°05' W 063°59'1 0.9 24.4
2016-Nov-30 08:48N 28°05' W 063°58'1 2.0 24.4
2016-Nov-30 08:16N 28°05' W 063°57'1 0.3 24.4
2016-Nov-30 06:40N 28°05' W 063°56'0 0.0 24.4
2016-Nov-30 06:35N 28°05' W 063°56'4 1.1 24.4
2016-Nov-30 03:02N 28°04' W 063°52'0 0.0 24.4
2016-Nov-30 02:13N 28°04' W 063°52'1 5.3 24.4
2016-Nov-30 02:07N 28°04' W 063°53'0 0.0 24.4
2016-Nov-30 01:25N 28°04' W 063°53'215.9 24.4
2016-Nov-30 01:19N 28°04' W 063°51'1 0.7 24.4
2016-Nov-30 00:33N 28°04' W 063°52'112.0 24.4
2016-Nov-30 00:30N 28°04' W 063°52'0 0.0 24.4
2016-Nov-30 00:25N 28°04' W 063°52'1 1.0 24.4
2016-Nov-29 23:52N 28°04' W 063°51'0 0.0 24.4
2016-Nov-29 23:46N 28°04' W 063°51'131.8 24.4
2016-Nov-29 23:44N 28°04' W 063°50'0 0.0 24.4
2016-Nov-29 22:15N 28°04' W 063°50'1 4.0 24.4
2016-Nov-29 22:06N 28°05' W 063°50'118.0 24.4
2016-Nov-29 22:04N 28°04' W 063°50'224.0 24.4
2016-Nov-29 22:00N 28°05' W 063°49'0 0.0 24.4
2016-Nov-29 20:23N 28°05' W 063°49'0 0.0 24.5
2016-Nov-29 19:49N 28°05' W 063°49'1 0.3 24.5
2016-Nov-29 18:13N 28°05' W 063°48'2 9.3 24.4
2016-Nov-29 18:02N 28°06' W 063°46'0 0.0 24.4
2016-Nov-29 15:49N 28°06' W 063°46'1 0.6 24.4
2016-Nov-29 14:52N 28°06' W 063°46'0 0.0 24.4
2016-Nov-29 14:06N 28°06' W 063°46'112.0 24.4
2016-Nov-29 14:03N 28°05' W 063°46'0 0.0 24.4
2016-Nov-29 13:15N 28°05' W 063°46'1 0.7 24.4
2016-Nov-29 12:28N 28°05' W 063°45'112.0 24.4
2016-Nov-29 12:25N 28°06' W 063°45'1 7.2 24.4
2016-Nov-29 12:20N 28°05' W 063°45'0 0.0 24.4
2016-Nov-29 11:36N 28°05' W 063°45'131.8
2016-Nov-29 11:34N 28°05' W 063°44'0 0.0 24.4
2016-Nov-29 10:53N 28°05' W 063°44'1 6.0 24.4
2016-Nov-29 10:47N 28°06' W 063°44'1 3.2 24.4
2016-Nov-29 10:37N 28°06' W 063°43'0 0.0 24.4
2016-Nov-29 09:53N 28°06' W 063°43'131.8 24.4
2016-Nov-29 09:51N 28°06' W 063°42'0 0.0 24.4
2016-Nov-29 09:01N 28°06' W 063°42'0 0.0 24.4
2016-Nov-29 08:30N 28°06' W 063°42'1 2.6 24.4
2016-Nov-29 08:18N 28°06' W 063°41'1 0.5 24.4
2016-Nov-29 06:49N 28°07' W 063°41'0 0.0 24.4
2016-Nov-29 06:46N 28°07' W 063°41'3 0.8 24.4
2016-Nov-29 02:33N 28°08' W 063°37'1 6.0 24.3
2016-Nov-29 02:25N 28°08' W 063°37'0 0.0 24.3
2016-Nov-29 01:44N 28°08' W 063°37'1 6.0 24.3
2016-Nov-29 01:38N 28°08' W 063°37'1 1.0 24.4
2016-Nov-29 00:52N 28°08' W 063°36'112.2 24.3
2016-Nov-29 00:46N 28°09' W 063°35'0 0.0 24.3
2016-Nov-29 00:24N 28°09' W 063°35'0 0.0 24.4
2016-Nov-29 00:06N 28°09' W 063°35'1 6.0 24.4
2016-Nov-29 00:00N 28°10' W 063°35'0 0.0 24.4
2016-Nov-28 23:56N 28°10' W 063°35'1 0.7 24.4
2016-Nov-28 22:49N 28°10' W 063°34'0 0.0 24.3
2016-Nov-28 22:41N 28°10' W 063°34'1 4.0 24.3
2016-Nov-28 22:29N 28°11' W 063°34'0 0.0
2016-Nov-28 22:17N 28°11' W 063°34'116.0 24.4
2016-Nov-28 22:14N 28°10' W 063°34'232.0 24.4
2016-Nov-28 22:11N 28°11' W 063°33'0 0.0 24.4
2016-Nov-28 21:05N 28°11' W 063°33'1 3.3 24.4
2016-Nov-28 20:54N 28°12' W 063°33'0 0.0 24.4
2016-Nov-28 20:51N 28°12' W 063°33'114.6 24.4
2016-Nov-28 20:46N 28°13' W 063°32'1 5.3 24.4
2016-Nov-28 20:37N 28°12' W 063°32'116.0 24.4
2016-Nov-28 20:34N 28°13' W 063°32'0 0.0 24.4
2016-Nov-28 20:03N 28°13' W 063°32'0 0.0 24.4
2016-Nov-28 20:00N 28°13' W 063°32'2 1.0 24.4
2016-Nov-28 18:22N 28°14' W 063°31'1 8.0 24.4
2016-Nov-28 18:16N 28°13' W 063°31'4 1.2 24.4
2016-Nov-28 15:17N 28°16' W 063°28'0 0.0 24.4
2016-Nov-28 15:12N 28°16' W 063°28'0 0.0 24.4
2016-Nov-28 14:32N 28°16' W 063°28'0 0.0 24.4
2016-Nov-28 14:26N 28°16' W 063°28'1 0.9 24.4
2016-Nov-28 13:35N 28°16' W 063°28'1 0.8 24.4
2016-Nov-28 12:51N 28°17' W 063°28'1 4.0 24.3
2016-Nov-28 12:42N 28°17' W 063°28'0 0.0 24.3
2016-Nov-28 12:37N 28°17' W 063°28'1 7.9 24.3
2016-Nov-28 12:33N 28°17' W 063°27'0 0.0 24.3
2016-Nov-28 11:21N 28°17' W 063°27'0 0.0 24.2
2016-Nov-28 11:17N 28°17' W 063°27'0 0.0 24.2
2016-Nov-28 10:59N 28°17' W 063°27'1 6.0 24.2
2016-Nov-28 10:53N 28°18' W 063°27'0 0.0 24.2
2016-Nov-28 10:30N 28°18' W 063°27'0 0.0 24.2
2016-Nov-28 10:25N 28°18' W 063°27'1 7.9 24.2
2016-Nov-28 10:21N 28°18' W 063°26'0 0.0 24.2
2016-Nov-28 09:39N 28°18' W 063°26'1 5.3 24.2
2016-Nov-28 09:33N 28°18' W 063°27'1 1.6 24.2
2016-Nov-28 09:13N 28°18' W 063°26'0 0.0 24.2
2016-Nov-28 08:43N 28°18' W 063°26'1 6.3 24.2
2016-Nov-28 08:38N 28°18' W 063°26'116.0 24.2
2016-Nov-28 08:35N 28°19' W 063°25'1 0.3 24.2
2016-Nov-28 07:00N 28°19' W 063°25'114.6 24.2
2016-Nov-28 06:55N 28°18' W 063°26'   24.2
Track history (hours):
 
Tides and Currents Weather Stations Pressure Air Temp Water Temp Dewpoint Dewpoint Depression Visibility Wind Speed Wind Dir Waves Ship Positions

Drifting buoy 13526

Last reported at 2016-Dec-08 06:46 UTC. Time now 2016-Dec-08 08:00 UTC.
Position N 28°27' W 064°06'.

Water temperature 23.8 ° C

Date/timePositionNaut miles runAvg speedWind from/ knotsBaromVisibWave heightAir tempDewpointWater temp
2016-Dec-08 06:46N 28°27' W 064°06'1 9.0 23.8
2016-Dec-08 06:42N 28°28' W 064°06'1 0.2 23.8
2016-Dec-08 01:59N 28°28' W 064°07'0 0.0 23.7
2016-Dec-08 01:53N 28°28' W 064°07'0 0.0 23.7
2016-Dec-08 01:07N 28°28' W 064°07'0 0.0 23.7
2016-Dec-08 01:01N 28°28' W 064°07'0 0.0 23.7
2016-Dec-08 00:41N 28°28' W 064°07'0 0.0 23.7
2016-Dec-08 00:21N 28°28' W 064°07'1 6.0 23.8
2016-Dec-08 00:13N 28°27' W 064°08'0 0.0 23.8
2016-Dec-07 23:53N 28°27' W 064°08'0 0.0 23.8
2016-Dec-07 23:22N 28°27' W 064°08'0 0.0 23.9
2016-Dec-07 23:07N 28°27' W 064°08'1 9.6 23.9
2016-Dec-07 23:02N 28°28' W 064°08'1 1.0 23.9
2016-Dec-07 22:16N 28°27' W 064°09'0 0.0 23.9
2016-Dec-07 22:12N 28°27' W 064°09'1 4.0 23.9
2016-Dec-07 22:04N 28°27' W 064°08'0 0.0 23.9
2016-Dec-07 21:27N 28°27' W 064°08'1 0.6 23.9
2016-Dec-07 20:02N 28°26' W 064°09'0 0.0 23.9
2016-Dec-07 19:58N 28°26' W 064°09'2 1.1 23.9
2016-Dec-07 18:22N 28°27' W 064°11'0 0.0 24.0
2016-Dec-07 18:17N 28°27' W 064°11'110.6 24.0
2016-Dec-07 18:14N 28°27' W 064°10'2 0.6 24.0
2016-Dec-07 15:29N 28°26' W 064°12'1 1.1 24.1
2016-Dec-07 14:46N 28°27' W 064°13'0 0.0 24.0
2016-Dec-07 14:41N 28°27' W 064°13'1 1.5 24.0
2016-Dec-07 13:50N 28°26' W 064°13'0 0.0 24.0
2016-Dec-07 13:04N 28°26' W 064°13'1 9.0 24.0
2016-Dec-07 12:57N 28°26' W 064°14'0 0.0 24.0
2016-Dec-07 12:35N 28°26' W 064°14'112.0 24.0
2016-Dec-07 12:29N 28°25' W 064°14'1 0.3 24.0
2016-Dec-07 10:53N 28°25' W 064°14'110.6 24.0
2016-Dec-07 10:50N 28°25' W 064°14'1 7.2 24.0
2016-Dec-07 10:45N 28°24' W 064°14'0 0.0 24.0
2016-Dec-07 09:07N 28°24' W 064°14'0 0.0 24.0
2016-Dec-07 09:01N 28°24' W 064°14'0 0.0 24.0
2016-Dec-07 08:41N 28°24' W 064°14'0 0.0 24.0
2016-Dec-07 08:38N 28°24' W 064°14'1 0.5 24.0
2016-Dec-07 07:01N 28°23' W 064°15'4 0.6 24.0
2016-Dec-07 00:42N 28°21' W 064°19'0 0.0 24.1
2016-Dec-07 00:33N 28°21' W 064°19'0 0.0 24.1
2016-Dec-07 00:04N 28°21' W 064°19'1 1.8 24.1
2016-Dec-06 23:46N 28°21' W 064°19'0 0.0 24.1
2016-Dec-06 23:39N 28°21' W 064°19'1 9.0 24.1
2016-Dec-06 23:35N 28°22' W 064°19'1 0.7 24.1
2016-Dec-06 22:30N 28°21' W 064°20'0 0.0 24.1
2016-Dec-06 22:24N 28°21' W 064°20'0 0.0 24.1
2016-Dec-06 22:18N 28°21' W 064°20'0 0.0 24.1
2016-Dec-06 22:00N 28°21' W 064°20'1 0.7 24.1
2016-Dec-06 20:52N 28°20' W 064°20'1 6.9 24.1
2016-Dec-06 20:45N 28°21' W 064°21'0 0.0 24.1
2016-Dec-06 20:42N 28°21' W 064°21'1 2.0 24.1
2016-Dec-06 20:05N 28°20' W 064°22'0 0.0 24.2
2016-Dec-06 18:33N 28°20' W 064°22'0 0.0 24.2
2016-Dec-06 18:30N 28°20' W 064°22'0 0.0 24.2
2016-Dec-06 18:25N 28°20' W 064°22'1 0.3 24.2
2016-Dec-06 16:49N 28°20' W 064°23'0 0.0 24.2
2016-Dec-06 15:49N 28°20' W 064°23'0 0.0 24.2
2016-Dec-06 15:03N 28°20' W 064°23'1 0.8 24.1
2016-Dec-06 14:06N 28°20' W 064°22'115.8 24.1
2016-Dec-06 14:04N 28°20' W 064°23'0 0.0 24.1
2016-Dec-06 13:23N 28°20' W 064°23'0 0.0 24.1
2016-Dec-06 13:22N 28°20' W 064°23'0 0.0 24.1
2016-Dec-06 12:45N 28°20' W 064°23'110.6 24.1
2016-Dec-06 12:42N 28°20' W 064°22'1 7.2 24.1
2016-Dec-06 12:37N 28°19' W 064°22'0 0.0 24.1
2016-Dec-06 12:28N 28°19' W 064°22'116.0 24.1
2016-Dec-06 12:25N 28°19' W 064°23'1 0.6 24.1
2016-Dec-06 11:22N 28°19' W 064°23'0 0.0 24.1
2016-Dec-06 11:19N 28°19' W 064°23'0 0.0 24.1
2016-Dec-06 11:16N 28°19' W 064°23'1 3.5 24.1
2016-Dec-06 11:07N 28°19' W 064°23'1 6.0 24.1
2016-Dec-06 10:59N 28°19' W 064°23'1 0.5 24.1
2016-Dec-06 09:42N 28°18' W 064°23'0 0.0 24.1
2016-Dec-06 09:38N 28°18' W 064°23'1 7.2 24.1
2016-Dec-06 09:33N 28°19' W 064°23'0 0.0 24.1
2016-Dec-06 08:52N 28°19' W 064°23'1 8.0 24.1
2016-Dec-06 08:46N 28°18' W 064°23'0 0.0 24.1
2016-Dec-06 08:42N 28°18' W 064°23'0 0.0 24.1
2016-Dec-06 07:58N 28°18' W 064°23'0 0.0 24.1
2016-Dec-06 07:06N 28°18' W 064°23'254.0 24.1
2016-Dec-06 07:04N 28°16' W 064°23'0 0.0 24.1
2016-Dec-06 02:39N 28°16' W 064°23'0 0.0 24.1
2016-Dec-06 02:34N 28°16' W 064°23'0 0.0 24.1
2016-Dec-06 01:48N 28°16' W 064°23'1 5.1 24.1
2016-Dec-06 01:41N 28°16' W 064°23'0 0.0 24.1
2016-Dec-06 01:02N 28°16' W 064°23'0 0.0 24.1
2016-Dec-06 00:59N 28°16' W 064°23'0 0.0 24.1
2016-Dec-06 00:52N 28°16' W 064°23'0 0.0 24.1
2016-Dec-06 00:16N 28°16' W 064°23'110.6 24.1
2016-Dec-06 00:13N 28°16' W 064°24'1 6.9 24.1
2016-Dec-06 00:06N 28°15' W 064°23'124.0 24.1
2016-Dec-06 00:04N 28°16' W 064°24'1 0.7 24.1
2016-Dec-05 22:52N 28°15' W 064°23'0 0.0 24.1
2016-Dec-05 22:35N 28°15' W 064°23'0 0.0 24.1
2016-Dec-05 22:34N 28°15' W 064°23'0 0.0 24.1
2016-Dec-05 22:21N 28°15' W 064°23'1 0.8 24.1
2016-Dec-05 21:20N 28°14' W 064°24'1 2.9 24.1
2016-Dec-05 21:09N 28°14' W 064°23'0 0.0 24.1
2016-Dec-05 20:51N 28°14' W 064°23'0 0.0 24.1
2016-Dec-05 20:45N 28°14' W 064°23'1 1.2 24.1
2016-Dec-05 20:19N 28°14' W 064°24'0 0.0 24.1
2016-Dec-05 18:45N 28°14' W 064°24'0 0.0 24.1
2016-Dec-05 18:42N 28°14' W 064°24'0 0.0 24.1
2016-Dec-05 18:36N 28°14' W 064°24'1 0.8 24.1
2016-Dec-05 17:01N 28°13' W 064°24'0 0.0 24.1
2016-Dec-05 16:07N 28°13' W 064°24'0 0.0 24.1
2016-Dec-05 15:24N 28°13' W 064°24'0 0.0 24.1
2016-Dec-05 14:34N 28°13' W 064°24'1 8.0 24.1
2016-Dec-05 14:28N 28°13' W 064°25'0 0.0 24.1
2016-Dec-05 13:43N 28°13' W 064°25'1 1.6 24.1
2016-Dec-05 12:53N 28°14' W 064°24'116.0 24.1
2016-Dec-05 12:50N 28°13' W 064°23'110.4 24.1
2016-Dec-05 12:43N 28°13' W 064°25'1 0.6 24.1
2016-Dec-05 11:45N 28°13' W 064°25'1 2.3 24.0
2016-Dec-05 11:18N 28°13' W 064°23'1 9.1 24.0
2016-Dec-05 11:11N 28°13' W 064°25'0 0.0 24.0
2016-Dec-05 11:07N 28°13' W 064°25'0 0.0 24.0
2016-Dec-05 10:07N 28°13' W 064°25'0 0.0 24.0
2016-Dec-05 10:02N 28°13' W 064°25'1 1.2 24.0
2016-Dec-05 09:36N 28°13' W 064°25'110.6 24.0
2016-Dec-05 09:33N 28°13' W 064°25'1 1.7 24.0
2016-Dec-05 09:04N 28°14' W 064°25'0 0.0 24.0
2016-Dec-05 08:58N 28°14' W 064°25'1 2.8 24.0
2016-Dec-05 08:32N 28°14' W 064°24'1 0.7 24.0
2016-Dec-05 07:21N 28°15' W 064°25'1 0.3 24.0
2016-Dec-05 05:39N 28°15' W 064°24'2 0.6 24.0
2016-Dec-05 02:07N 28°17' W 064°23'1 5.3 24.1
2016-Dec-05 02:01N 28°17' W 064°23'0 0.0 24.1
2016-Dec-05 01:24N 28°17' W 064°23'0 0.0 24.1
2016-Dec-05 01:21N 28°17' W 064°23'1 8.0 24.1
2016-Dec-05 01:15N 28°17' W 064°23'1 0.9 24.1
2016-Dec-05 00:37N 28°18' W 064°23'0 0.0 24.2
2016-Dec-05 00:27N 28°18' W 064°23'136.0 24.2
2016-Dec-05 00:26N 28°17' W 064°23'1 7.2 24.2
2016-Dec-05 00:21N 28°18' W 064°23'1 0.8 24.2
2016-Dec-04 23:21N 28°17' W 064°22'0 0.0 24.2
2016-Dec-04 23:02N 28°17' W 064°22'1 6.9 24.2
2016-Dec-04 22:55N 28°18' W 064°23'1 4.0 24.2
2016-Dec-04 22:46N 28°17' W 064°23'112.0 24.2
2016-Dec-04 22:42N 28°18' W 064°22'0 0.0 24.2
2016-Dec-04 21:45N 28°18' W 064°22'1 4.0 24.2
2016-Dec-04 21:37N 28°18' W 064°23'0 0.0 24.2
2016-Dec-04 21:20N 28°18' W 064°23'1 2.4 24.2
2016-Dec-04 21:07N 28°18' W 064°22'0 0.0 24.2
2016-Dec-04 21:00N 28°18' W 064°22'0 0.0 24.2
2016-Dec-04 20:31N 28°18' W 064°22'1 1.2 24.2
2016-Dec-04 20:01N 28°19' W 064°22'0 0.0 24.2
2016-Dec-04 18:52N 28°19' W 064°22'110.6 24.2
2016-Dec-04 18:49N 28°19' W 064°22'0 0.0 24.2
2016-Dec-04 17:13N 28°19' W 064°22'2 1.3 24.2
2016-Dec-04 15:43N 28°20' W 064°21'1 0.7 24.2
2016-Dec-04 14:52N 28°20' W 064°21'0 0.0 24.2
2016-Dec-04 14:49N 28°20' W 064°21'0 0.0 24.2
2016-Dec-04 14:06N 28°20' W 064°21'1 5.1 24.2
2016-Dec-04 13:59N 28°20' W 064°21'0 0.0 24.2
2016-Dec-04 13:11N 28°20' W 064°21'1 6.0 24.2
2016-Dec-04 13:05N 28°21' W 064°21'0 0.0 24.2
2016-Dec-04 12:07N 28°21' W 064°21'0 0.0 24.2
2016-Dec-04 11:32N 28°21' W 064°21'0 0.0 24.2
2016-Dec-04 11:22N 28°21' W 064°21'1 0.7 24.2
2016-Dec-04 10:35N 28°21' W 064°22'0 0.0 24.2
2016-Dec-04 10:29N 28°21' W 064°22'1 4.8 24.2
2016-Dec-04 10:19N 28°22' W 064°21'1 1.2 24.2
2016-Dec-04 09:49N 28°21' W 064°21'1 1.0 24.2
2016-Dec-04 09:12N 28°22' W 064°21'0 0.0 24.2
2016-Dec-04 09:09N 28°22' W 064°21'0 0.0 24.2
2016-Dec-04 09:06N 28°22' W 064°21'0 0.0 24.2
2016-Dec-04 09:04N 28°22' W 064°21'0 0.0 24.2
2016-Dec-04 09:00N 28°22' W 064°21'1 9.6 24.2
2016-Dec-04 08:55N 28°22' W 064°22'0 0.0 24.2
2016-Dec-04 07:34N 28°22' W 064°22'1 4.0 24.2
2016-Dec-04 07:26N 28°22' W 064°21'1 0.4 24.2
2016-Dec-04 05:48N 28°22' W 064°21'1 0.1 24.2
2016-Dec-04 01:43N 28°22' W 064°20'0 0.0 24.2
2016-Dec-04 01:37N 28°22' W 064°20'1 0.6 24.2
2016-Dec-04 00:41N 28°22' W 064°21'0 0.0 24.2
2016-Dec-04 00:02N 28°22' W 064°21'0 0.0 24.2
2016-Dec-03 23:48N 28°22' W 064°21'0 0.0 24.2
2016-Dec-03 23:45N 28°22' W 064°21'1 2.4 24.2
2016-Dec-03 23:32N 28°22' W 064°20'0 0.0 24.2
2016-Dec-03 23:28N 28°22' W 064°20'1 0.9 24.2
2016-Dec-03 22:53N 28°22' W 064°20'0 0.0 24.2
2016-Dec-03 22:07N 28°22' W 064°20'1 2.3 24.2
2016-Dec-03 21:53N 28°22' W 064°20'0 0.0 24.2
2016-Dec-03 21:21N 28°22' W 064°20'0 0.0 24.2
2016-Dec-03 21:16N 28°22' W 064°20'1 0.9 24.2
2016-Dec-03 20:42N 28°22' W 064°20'0 0.0 24.2
2016-Dec-03 20:28N 28°22' W 064°20'1 0.4 24.2
2016-Dec-03 19:06N 28°22' W 064°20'112.0 24.2
2016-Dec-03 19:03N 28°23' W 064°20'0 0.0 24.2
2016-Dec-03 18:58N 28°23' W 064°20'1 0.9 24.2
2016-Dec-03 17:26N 28°22' W 064°20'0 0.0 24.2
2016-Dec-03 17:21N 28°22' W 064°20'1 0.4 24.2
2016-Dec-03 15:14N 28°21' W 064°21'0 0.0 24.2
2016-Dec-03 15:11N 28°21' W 064°21'0 0.0 24.2
2016-Dec-03 14:28N 28°21' W 064°21'1 6.0 24.2
2016-Dec-03 14:22N 28°20' W 064°21'2 1.9 24.2
2016-Dec-03 13:31N 28°20' W 064°23'0 0.0 24.1
2016-Dec-03 13:16N 28°20' W 064°23'0 0.0 24.1
2016-Dec-03 12:32N 28°20' W 064°23'1 1.3 24.1
2016-Dec-03 11:42N 28°20' W 064°22'0 0.0 24.1
2016-Dec-03 11:35N 28°20' W 064°22'1 0.7 24.1
2016-Dec-03 10:52N 28°20' W 064°21'116.0 24.1
2016-Dec-03 10:49N 28°21' W 064°22'0 0.0 24.1
2016-Dec-03 10:00N 28°21' W 064°22'0 0.0 24.2
2016-Dec-03 09:35N 28°21' W 064°22'0 0.0 24.2
2016-Dec-03 09:32N 28°21' W 064°22'1 9.0 24.2
2016-Dec-03 09:28N 28°22' W 064°22'0 0.0 24.2
2016-Dec-03 09:24N 28°22' W 064°22'1 8.0 24.2
2016-Dec-03 09:18N 28°21' W 064°21'0 0.0 24.2
2016-Dec-03 09:11N 28°21' W 064°21'0 0.0 24.2
2016-Dec-03 07:40N 28°21' W 064°21'1 0.4 24.2
2016-Dec-03 06:05N 28°22' W 064°21'116.0 24.2
2016-Dec-03 06:02N 28°22' W 064°22'1 0.2 24.2
2016-Dec-03 02:50N 28°22' W 064°21'0 0.0 24.2
2016-Dec-03 02:44N 28°22' W 064°21'0 0.0 24.2
2016-Dec-03 02:04N 28°22' W 064°21'1 0.5 24.2
2016-Dec-03 01:06N 28°22' W 064°22'110.6 24.2
2016-Dec-03 01:03N 28°22' W 064°21'0 0.0 24.2
2016-Dec-03 00:23N 28°22' W 064°21'0 0.0 24.2
2016-Dec-03 00:19N 28°22' W 064°21'0 0.0 24.2
2016-Dec-03 00:00N 28°22' W 064°21'1 0.6 24.2
2016-Dec-02 23:07N 28°22' W 064°22'115.8 24.2
2016-Dec-02 23:05N 28°22' W 064°21'1 1.4 24.2
2016-Dec-02 22:31N 28°22' W 064°22'1 5.1 24.2
2016-Dec-02 22:24N 28°22' W 064°22'1 0.7 24.2
2016-Dec-02 21:33N 28°22' W 064°22'0 0.0 24.2
2016-Dec-02 21:28N 28°22' W 064°22'0 0.0 24.2
2016-Dec-02 21:25N 28°22' W 064°22'1 1.1 24.2
2016-Dec-02 20:52N 28°21' W 064°22'0 0.0 24.2
2016-Dec-02 20:50N 28°21' W 064°22'0 0.0 24.2
2016-Dec-02 20:39N 28°21' W 064°22'0 0.0 24.2
2016-Dec-02 19:15N 28°21' W 064°22'0 0.0 24.3
2016-Dec-02 19:10N 28°21' W 064°22'1 0.5 24.3
2016-Dec-02 17:37N 28°20' W 064°22'1 4.5 24.3
2016-Dec-02 17:29N 28°20' W 064°22'0 0.0 24.3
2016-Dec-02 15:34N 28°20' W 064°22'110.6 24.2
2016-Dec-02 15:31N 28°20' W 064°22'0 0.0 24.2
2016-Dec-02 14:50N 28°20' W 064°22'1 4.0 24.2
2016-Dec-02 14:41N 28°19' W 064°22'0 0.0
2016-Dec-02 13:53N 28°19' W 064°22'0 0.0 24.1
2016-Dec-02 13:07N 28°19' W 064°22'0 0.0 24.1
2016-Dec-02 13:02N 28°19' W 064°22'1 0.7 24.1
2016-Dec-02 12:09N 28°19' W 064°22'0 0.0 24.1
2016-Dec-02 11:52N 28°19' W 064°22'0 0.0 24.1
2016-Dec-02 11:49N 28°19' W 064°22'1 4.5 24.1
2016-Dec-02 11:41N 28°18' W 064°22'1 1.8 24.1
2016-Dec-02 11:21N 28°19' W 064°22'0 0.0 24.1
2016-Dec-02 11:18N 28°19' W 064°22'1 0.7 24.1
2016-Dec-02 10:06N 28°18' W 064°21'110.6 24.1
2016-Dec-02 10:03N 28°18' W 064°22'1 7.2 24.1
2016-Dec-02 09:58N 28°17' W 064°22'0 0.0 24.1
2016-Dec-02 09:40N 28°17' W 064°22'0 0.0 24.1
2016-Dec-02 09:34N 28°17' W 064°22'1 0.5 24.1
2016-Dec-02 08:25N 28°17' W 064°21'0 0.0 24.1
2016-Dec-02 07:51N 28°17' W 064°21'116.0 24.1
2016-Dec-02 07:48N 28°17' W 064°20'0 0.0 24.1
2016-Dec-02 06:18N 28°17' W 064°20'0 0.0 24.1
2016-Dec-02 06:13N 28°17' W 064°20'2 0.4 24.1
2016-Dec-02 01:32N 28°16' W 064°19'0 0.0 24.1
2016-Dec-02 01:22N 28°16' W 064°19'0 0.0 24.2
2016-Dec-02 00:45N 28°16' W 064°19'0 0.0 24.2
2016-Dec-02 00:40N 28°16' W 064°19'0 0.0 24.2
2016-Dec-02 00:36N 28°16' W 064°19'0 0.0 24.2
2016-Dec-02 00:31N 28°16' W 064°19'1 0.8 24.2
2016-Dec-01 23:50N 28°16' W 064°18'0 0.0 24.2
2016-Dec-01 23:25N 28°16' W 064°18'0 0.0 24.2
2016-Dec-01 23:22N 28°16' W 064°18'0 0.0 24.2
2016-Dec-01 23:19N 28°16' W 064°18'0 0.0 24.2
2016-Dec-01 22:53N 28°16' W 064°18'1 7.2 24.2
2016-Dec-01 22:48N 28°16' W 064°18'1 0.6 24.2
2016-Dec-01 21:45N 28°16' W 064°18'0 0.0 24.2
2016-Dec-01 21:41N 28°16' W 064°18'1 9.6 24.2
2016-Dec-01 21:36N 28°16' W 064°19'0 0.0 24.2
2016-Dec-01 21:15N 28°16' W 064°19'1 8.0 24.2
2016-Dec-01 21:09N 28°15' W 064°18'0 0.0 24.2
2016-Dec-01 19:29N 28°15' W 064°18'0 0.0 24.3
2016-Dec-01 19:24N 28°15' W 064°18'112.0 24.3
2016-Dec-01 19:21N 28°14' W 064°18'0 0.0 24.3
2016-Dec-01 17:49N 28°14' W 064°18'1 8.7 24.3
2016-Dec-01 17:40N 28°13' W 064°17'1 0.3 24.3
2016-Dec-01 15:53N 28°13' W 064°17'1 0.7 24.3
2016-Dec-01 15:07N 28°13' W 064°17'0 0.0 24.3
2016-Dec-01 15:05N 28°13' W 064°17'1 1.5 24.3
2016-Dec-01 14:16N 28°12' W 064°16'0 0.0 24.2
2016-Dec-01 14:07N 28°12' W 064°16'1 0.7 24.2
2016-Dec-01 13:23N 28°12' W 064°16'131.7 24.2
2016-Dec-01 13:21N 28°12' W 064°15'0 0.0
2016-Dec-01 12:32N 28°12' W 064°15'1 6.3 24.2
2016-Dec-01 12:27N 28°12' W 064°16'0 0.0 24.2
2016-Dec-01 12:01N 28°12' W 064°16'1 4.0 24.2
2016-Dec-01 11:52N 28°11' W 064°16'0 0.0 24.2
2016-Dec-01 11:44N 28°11' W 064°16'1 1.0 24.2
2016-Dec-01 10:34N 28°11' W 064°14'0 0.0 24.2
2016-Dec-01 10:29N 28°11' W 064°14'1 6.0 24.2
2016-Dec-01 10:23N 28°10' W 064°14'112.0 24.2
2016-Dec-01 10:20N 28°11' W 064°14'1 6.0 24.2
2016-Dec-01 10:14N 28°10' W 064°14'0 0.0 24.2
2016-Dec-01 10:06N 28°10' W 064°14'1 5.1 24.2
2016-Dec-01 09:59N 28°11' W 064°14'139.3 24.2
2016-Dec-01 09:57N 28°10' W 064°14'0 0.0 24.2
2016-Dec-01 08:53N 28°10' W 064°14'116.0 24.2
2016-Dec-01 08:50N 28°10' W 064°13'0 0.0 24.2
2016-Dec-01 08:07N 28°10' W 064°13'0 0.0 24.2
2016-Dec-01 08:05N 28°10' W 064°13'1 0.8 24.2
2016-Dec-01 06:29N 28°10' W 064°12'0 0.0 24.3
2016-Dec-01 06:24N 28°10' W 064°12'3 0.6 24.3
2016-Dec-01 01:53N 28°09' W 064°09'1 4.8 24.3
2016-Dec-01 01:43N 28°08' W 064°08'0 0.0 24.3
2016-Dec-01 01:05N 28°08' W 064°08'0 0.0 24.3
2016-Dec-01 01:02N 28°08' W 064°08'0 0.0 24.3
2016-Dec-01 00:59N 28°08' W 064°08'1 0.6 24.3
2016-Dec-01 00:07N 28°08' W 064°08'1 5.3 24.3
2016-Dec-01 00:01N 28°08' W 064°07'0 0.0
2016-Nov-30 23:36N 28°08' W 064°07'0 0.0 24.3
2016-Nov-30 23:31N 28°08' W 064°07'0 0.0 24.3
2016-Nov-30 23:21N 28°08' W 064°07'118.0
2016-Nov-30 23:19N 28°08' W 064°07'1 0.8 24.4
2016-Nov-30 21:52N 28°08' W 064°06'1 4.0 24.4
2016-Nov-30 21:44N 28°08' W 064°07'239.8 24.4
2016-Nov-30 21:41N 28°07' W 064°05'0 0.0 24.4
2016-Nov-30 21:36N 28°07' W 064°05'0 0.0 24.4
2016-Nov-30 20:00N 28°07' W 064°05'0 0.0 24.4
2016-Nov-30 19:37N 28°07' W 064°05'1 5.3 24.4
2016-Nov-30 19:31N 28°07' W 064°04'0 0.0 24.4
2016-Nov-30 18:00N 28°07' W 064°04'214.5 24.4
2016-Nov-30 17:53N 28°07' W 064°02'0 0.0 24.4
2016-Nov-30 16:11N 28°07' W 064°02'0 0.0 24.4
2016-Nov-30 15:29N 28°07' W 064°02'115.9 24.4
2016-Nov-30 15:27N 28°07' W 064°02'1 0.7 24.4
2016-Nov-30 14:36N 28°06' W 064°02'1 5.3 24.4
2016-Nov-30 14:30N 28°06' W 064°01'0 0.0 24.4
2016-Nov-30 13:49N 28°06' W 064°01'112.7 24.4
2016-Nov-30 13:44N 28°06' W 064°02'1 1.4 24.4
2016-Nov-30 12:52N 28°05' W 064°01'1 0.9 24.4
2016-Nov-30 12:15N 28°05' W 064°01'0 0.0 24.4
2016-Nov-30 12:12N 28°05' W 064°01'1 0.5 24.4
2016-Nov-30 11:06N 28°05' W 064°00'112.0 24.4
2016-Nov-30 11:03N 28°05' W 064°00'1 1.6 24.4
2016-Nov-30 10:33N 28°05' W 063°59'0 0.0 24.4
2016-Nov-30 10:28N 28°05' W 063°59'1 0.8 24.4
2016-Nov-30 09:28N 28°05' W 063°59'0 0.0 24.4
2016-Nov-30 09:25N 28°05' W 063°59'0 0.0 24.4
2016-Nov-30 09:22N 28°05' W 063°59'1 0.9 24.4
2016-Nov-30 08:48N 28°05' W 063°58'1 2.0 24.4
2016-Nov-30 08:16N 28°05' W 063°57'1 0.3 24.4
2016-Nov-30 06:40N 28°05' W 063°56'0 0.0 24.4
2016-Nov-30 06:35N 28°05' W 063°56'4 1.1 24.4
2016-Nov-30 03:02N 28°04' W 063°52'0 0.0 24.4
2016-Nov-30 02:13N 28°04' W 063°52'1 5.3 24.4
2016-Nov-30 02:07N 28°04' W 063°53'0 0.0 24.4
2016-Nov-30 01:25N 28°04' W 063°53'215.9 24.4
2016-Nov-30 01:19N 28°04' W 063°51'1 0.7 24.4
2016-Nov-30 00:33N 28°04' W 063°52'112.0 24.4
2016-Nov-30 00:30N 28°04' W 063°52'0 0.0 24.4
2016-Nov-30 00:25N 28°04' W 063°52'1 1.0 24.4
2016-Nov-29 23:52N 28°04' W 063°51'0 0.0 24.4
2016-Nov-29 23:46N 28°04' W 063°51'131.8 24.4
2016-Nov-29 23:44N 28°04' W 063°50'0 0.0 24.4
2016-Nov-29 22:15N 28°04' W 063°50'1 4.0 24.4
2016-Nov-29 22:06N 28°05' W 063°50'118.0 24.4
2016-Nov-29 22:04N 28°04' W 063°50'224.0 24.4
2016-Nov-29 22:00N 28°05' W 063°49'0 0.0 24.4
2016-Nov-29 20:23N 28°05' W 063°49'0 0.0 24.5
2016-Nov-29 19:49N 28°05' W 063°49'1 0.3 24.5
2016-Nov-29 18:13N 28°05' W 063°48'2 9.3 24.4
2016-Nov-29 18:02N 28°06' W 063°46'0 0.0 24.4
2016-Nov-29 15:49N 28°06' W 063°46'1 0.6 24.4
2016-Nov-29 14:52N 28°06' W 063°46'0 0.0 24.4
2016-Nov-29 14:06N 28°06' W 063°46'112.0 24.4
2016-Nov-29 14:03N 28°05' W 063°46'0 0.0 24.4
2016-Nov-29 13:15N 28°05' W 063°46'1 0.7 24.4
2016-Nov-29 12:28N 28°05' W 063°45'112.0 24.4
2016-Nov-29 12:25N 28°06' W 063°45'1 7.2 24.4
2016-Nov-29 12:20N 28°05' W 063°45'0 0.0 24.4
2016-Nov-29 11:36N 28°05' W 063°45'131.8
2016-Nov-29 11:34N 28°05' W 063°44'0 0.0 24.4
2016-Nov-29 10:53N 28°05' W 063°44'1 6.0 24.4
2016-Nov-29 10:47N 28°06' W 063°44'1 3.2 24.4
2016-Nov-29 10:37N 28°06' W 063°43'0 0.0 24.4
2016-Nov-29 09:53N 28°06' W 063°43'131.8 24.4
2016-Nov-29 09:51N 28°06' W 063°42'0 0.0 24.4
2016-Nov-29 09:01N 28°06' W 063°42'0 0.0 24.4
2016-Nov-29 08:30N 28°06' W 063°42'1 2.6 24.4
2016-Nov-29 08:18N 28°06' W 063°41'1 0.5 24.4
2016-Nov-29 06:49N 28°07' W 063°41'0 0.0 24.4
2016-Nov-29 06:46N 28°07' W 063°41'3 0.8 24.4
2016-Nov-29 02:33N 28°08' W 063°37'1 6.0 24.3
2016-Nov-29 02:25N 28°08' W 063°37'0 0.0 24.3
2016-Nov-29 01:44N 28°08' W 063°37'1 6.0 24.3
2016-Nov-29 01:38N 28°08' W 063°37'1 1.0 24.4
2016-Nov-29 00:52N 28°08' W 063°36'112.2 24.3
2016-Nov-29 00:46N 28°09' W 063°35'0 0.0 24.3
2016-Nov-29 00:24N 28°09' W 063°35'0 0.0 24.4
2016-Nov-29 00:06N 28°09' W 063°35'1 6.0 24.4
2016-Nov-29 00:00N 28°10' W 063°35'0 0.0 24.4
2016-Nov-28 23:56N 28°10' W 063°35'1 0.7 24.4
2016-Nov-28 22:49N 28°10' W 063°34'0 0.0 24.3
2016-Nov-28 22:41N 28°10' W 063°34'1 4.0 24.3
2016-Nov-28 22:29N 28°11' W 063°34'0 0.0
2016-Nov-28 22:17N 28°11' W 063°34'116.0 24.4
2016-Nov-28 22:14N 28°10' W 063°34'232.0 24.4
2016-Nov-28 22:11N 28°11' W 063°33'0 0.0 24.4
2016-Nov-28 21:05N 28°11' W 063°33'1 3.3 24.4
2016-Nov-28 20:54N 28°12' W 063°33'0 0.0 24.4
2016-Nov-28 20:51N 28°12' W 063°33'114.6 24.4
2016-Nov-28 20:46N 28°13' W 063°32'1 5.3 24.4
2016-Nov-28 20:37N 28°12' W 063°32'116.0 24.4
2016-Nov-28 20:34N 28°13' W 063°32'0 0.0 24.4
2016-Nov-28 20:03N 28°13' W 063°32'0 0.0 24.4
2016-Nov-28 20:00N 28°13' W 063°32'2 1.0 24.4
2016-Nov-28 18:22N 28°14' W 063°31'1 8.0 24.4
2016-Nov-28 18:16N 28°13' W 063°31'4 1.2 24.4
2016-Nov-28 15:17N 28°16' W 063°28'0 0.0 24.4
2016-Nov-28 15:12N 28°16' W 063°28'0 0.0 24.4
2016-Nov-28 14:32N 28°16' W 063°28'0 0.0 24.4
2016-Nov-28 14:26N 28°16' W 063°28'1 0.9 24.4
2016-Nov-28 13:35N 28°16' W 063°28'1 0.8 24.4
2016-Nov-28 12:51N 28°17' W 063°28'1 4.0 24.3
2016-Nov-28 12:42N 28°17' W 063°28'0 0.0 24.3
2016-Nov-28 12:37N 28°17' W 063°28'1 7.9 24.3
2016-Nov-28 12:33N 28°17' W 063°27'0 0.0 24.3
2016-Nov-28 11:21N 28°17' W 063°27'0 0.0 24.2
2016-Nov-28 11:17N 28°17' W 063°27'0 0.0 24.2
2016-Nov-28 10:59N 28°17' W 063°27'1 6.0 24.2
2016-Nov-28 10:53N 28°18' W 063°27'0 0.0 24.2
2016-Nov-28 10:30N 28°18' W 063°27'0 0.0 24.2
2016-Nov-28 10:25N 28°18' W 063°27'1 7.9 24.2
2016-Nov-28 10:21N 28°18' W 063°26'0 0.0 24.2
2016-Nov-28 09:39N 28°18' W 063°26'1 5.3 24.2
2016-Nov-28 09:33N 28°18' W 063°27'1 1.6 24.2
2016-Nov-28 09:13N 28°18' W 063°26'0 0.0 24.2
2016-Nov-28 08:43N 28°18' W 063°26'1 6.3 24.2
2016-Nov-28 08:38N 28°18' W 063°26'116.0 24.2
2016-Nov-28 08:35N 28°19' W 063°25'1 0.3 24.2
2016-Nov-28 07:00N 28°19' W 063°25'114.6 24.2
2016-Nov-28 06:55N 28°18' W 063°26'   24.2

Dump ship's entire track history